createdAt,value
2019-03-25T00:01:15.921Z,12.07
2019-03-25T00:03:48.316Z,12.13
2019-03-25T00:06:21.104Z,11.91
2019-03-25T00:09:05.039Z,12.00
2019-03-25T00:11:29.264Z,11.77
2019-03-25T00:14:02.040Z,11.73
2019-03-25T00:16:34.549Z,11.71
2019-03-25T00:19:06.897Z,11.49
2019-03-25T00:21:39.574Z,11.37
2019-03-25T00:24:11.851Z,11.72
2019-03-25T00:26:44.226Z,11.85
2019-03-25T00:29:16.565Z,11.90
2019-03-25T00:31:48.894Z,11.63
2019-03-25T00:34:21.127Z,11.27
2019-03-25T00:36:53.473Z,10.97
2019-03-25T00:39:25.744Z,10.88
2019-03-25T00:41:58.041Z,10.75
2019-03-25T00:44:30.350Z,10.90
2019-03-25T00:47:02.928Z,11.14
2019-03-25T00:49:35.463Z,11.24
2019-03-25T00:52:07.778Z,11.44
2019-03-25T00:54:49.539Z,11.45
2019-03-25T00:57:14.091Z,11.67
2019-03-25T00:59:48.922Z,11.62
2019-03-25T01:02:20.584Z,11.29
2019-03-25T01:04:52.863Z,10.95
2019-03-25T01:07:25.190Z,10.80
2019-03-25T01:09:57.495Z,10.69
2019-03-25T01:12:29.811Z,10.51
2019-03-25T01:15:02.069Z,10.67
2019-03-25T01:17:34.858Z,10.57
2019-03-25T01:20:08.357Z,10.53
2019-03-25T01:22:40.757Z,10.56
2019-03-25T01:25:13.068Z,10.34
2019-03-25T01:27:45.338Z,10.46
2019-03-25T01:30:17.658Z,10.60
2019-03-25T01:32:49.991Z,10.50
2019-03-25T01:35:22.306Z,10.63
2019-03-25T01:37:54.633Z,10.63
2019-03-25T01:40:26.911Z,10.52
2019-03-25T01:42:59.221Z,10.46
2019-03-25T01:45:31.487Z,10.42
2019-03-25T01:48:03.837Z,10.18
2019-03-25T01:50:36.725Z,10.14
2019-03-25T01:53:09.409Z,10.16
2019-03-25T01:55:41.702Z,10.20
2019-03-25T01:58:14.046Z,10.16
2019-03-25T02:00:46.341Z,10.29
2019-03-25T02:03:18.604Z,10.46
2019-03-25T02:05:50.909Z,10.43
2019-03-25T02:08:23.176Z,10.47
2019-03-25T02:10:55.714Z,10.46
2019-03-25T02:13:27.973Z,10.35
2019-03-25T02:16:00.659Z,10.37
2019-03-25T02:18:33.860Z,10.43
2019-03-25T02:21:07.409Z,10.29
2019-03-25T02:23:39.695Z,10.16
2019-03-25T02:26:11.997Z,10.25
2019-03-25T02:28:44.399Z,10.20
2019-03-25T02:31:16.714Z,10.04
2019-03-25T02:33:49.025Z,10.14
2019-03-25T02:36:21.427Z,10.44
2019-03-25T02:38:53.775Z,10.41
2019-03-25T02:41:26.097Z,10.62
2019-03-25T02:43:58.868Z,10.63
2019-03-25T02:46:31.138Z,10.79
2019-03-25T02:49:03.443Z,10.43
2019-03-25T02:51:35.743Z,10.43
2019-03-25T02:54:08.483Z,10.10
2019-03-25T02:56:40.764Z,10.23
2019-03-25T02:59:13.022Z,10.16
2019-03-25T03:01:45.322Z,10.10
2019-03-25T03:04:17.716Z,10.16
2019-03-25T03:06:49.994Z,10.28
2019-03-25T03:09:22.278Z,10.14
2019-03-25T03:11:54.580Z,10.15
2019-03-25T03:14:26.873Z,10.31
2019-03-25T03:17:00.691Z,10.31
2019-03-25T03:19:33.027Z,10.42
2019-03-25T03:22:06.725Z,10.33
2019-03-25T03:24:39.025Z,10.38
2019-03-25T03:27:11.805Z,10.48
2019-03-25T03:29:44.100Z,10.45
2019-03-25T03:32:16.356Z,10.47
2019-03-25T03:34:49.100Z,10.28
2019-03-25T03:37:21.406Z,10.23
2019-03-25T03:39:53.719Z,10.40
2019-03-25T03:42:26.150Z,10.31
2019-03-25T03:44:58.464Z,10.22
2019-03-25T03:47:30.798Z,10.01
2019-03-25T03:50:03.465Z,10.12
2019-03-25T03:52:36.497Z,10.24
2019-03-25T03:55:08.852Z,10.32
2019-03-25T03:57:41.226Z,9.78
2019-03-25T04:00:18.487Z,9.87
2019-03-25T04:02:50.754Z,10.14
2019-03-25T04:05:23.055Z,10.31
2019-03-25T04:07:55.427Z,10.20
2019-03-25T04:10:28.053Z,10.41
2019-03-25T04:13:00.675Z,10.38
2019-03-25T04:15:34.525Z,10.38
2019-03-25T04:18:07.317Z,10.34
2019-03-25T04:20:39.575Z,10.48
2019-03-25T04:23:11.889Z,10.21
2019-03-25T04:25:44.207Z,10.25
2019-03-25T04:28:16.564Z,10.20
2019-03-25T04:30:48.907Z,10.20
2019-03-25T04:33:21.166Z,10.36
2019-03-25T04:35:53.443Z,10.04
2019-03-25T04:38:25.761Z,10.10
2019-03-25T04:40:58.017Z,10.17
2019-03-25T04:43:30.321Z,10.13
2019-03-25T04:46:03.234Z,10.12
2019-03-25T04:48:35.545Z,10.07
2019-03-25T04:51:08.052Z,10.04
2019-03-25T04:53:40.804Z,10.23
2019-03-25T04:56:13.055Z,10.22
2019-03-25T04:58:45.483Z,10.23
2019-03-25T05:01:17.730Z,10.21
2019-03-25T05:03:50.054Z,10.02
2019-03-25T05:06:24.197Z,10.14
2019-03-25T05:08:56.493Z,9.93
2019-03-25T05:11:30.794Z,9.98
2019-03-25T05:14:04.177Z,10.02
2019-03-25T05:16:36.487Z,9.92
2019-03-25T05:19:08.734Z,9.68
2019-03-25T05:21:41.109Z,9.65
2019-03-25T05:24:13.441Z,9.58
2019-03-25T05:26:50.985Z,9.58
2019-03-25T05:29:19.688Z,9.84
2019-03-25T05:31:51.947Z,10.51
2019-03-25T05:34:24.252Z,10.38
2019-03-25T05:36:56.596Z,10.54
2019-03-25T05:39:28.873Z,10.55
2019-03-25T05:42:02.864Z,10.57
2019-03-25T05:44:35.164Z,10.38
2019-03-25T05:47:07.485Z,10.09
2019-03-25T05:49:39.773Z,10.11
2019-03-25T05:52:12.041Z,10.07
2019-03-25T05:54:44.285Z,9.95
2019-03-25T05:57:16.533Z,10.10
2019-03-25T05:59:48.805Z,10.05
2019-03-25T06:02:21.047Z,9.97
2019-03-25T06:04:53.316Z,9.92
2019-03-25T06:07:25.676Z,9.89
2019-03-25T06:09:57.939Z,9.83
2019-03-25T06:12:30.269Z,9.71
2019-03-25T06:15:04.805Z,9.64
2019-03-25T06:17:37.137Z,9.35
2019-03-25T06:20:09.453Z,9.24
2019-03-25T06:22:41.779Z,9.11
2019-03-25T06:25:14.030Z,9.07
2019-03-25T06:27:46.266Z,9.15
2019-03-25T06:30:18.591Z,9.10
2019-03-25T06:32:50.879Z,9.19
2019-03-25T06:35:23.169Z,9.29
2019-03-25T06:37:55.810Z,9.34
2019-03-25T06:40:28.101Z,9.55
2019-03-25T06:43:00.418Z,9.61
2019-03-25T06:45:33.877Z,9.67
2019-03-25T06:48:06.138Z,9.53
2019-03-25T06:50:38.449Z,9.61
2019-03-25T06:53:10.727Z,9.68
2019-03-25T06:55:43.038Z,9.72
2019-03-25T06:58:15.324Z,9.71
2019-03-25T07:00:47.573Z,9.73
2019-03-25T07:03:19.865Z,9.86
2019-03-25T07:05:52.116Z,9.77
2019-03-25T07:08:24.372Z,9.61
2019-03-25T07:10:57.075Z,9.53
2019-03-25T07:13:29.652Z,9.54
2019-03-25T07:16:02.324Z,9.79
2019-03-25T07:18:34.609Z,9.93
2019-03-25T07:21:06.859Z,9.99
2019-03-25T07:23:50.549Z,10.08
2019-03-25T07:26:22.798Z,10.28
2019-03-25T07:28:55.096Z,10.36
2019-03-25T07:31:27.354Z,10.41
2019-03-25T07:33:59.656Z,10.49
2019-03-25T07:36:31.967Z,10.60
2019-03-25T07:39:04.837Z,10.45
2019-03-25T07:41:38.732Z,10.73
2019-03-25T07:44:11.117Z,10.92
2019-03-25T07:46:43.409Z,11.14
2019-03-25T07:49:15.783Z,11.30
2019-03-25T07:51:48.043Z,11.44
2019-03-25T07:54:20.307Z,11.66
2019-03-25T07:56:52.717Z,12.04
2019-03-25T07:59:25.071Z,12.88
2019-03-25T08:01:57.836Z,14.55
2019-03-25T08:04:30.079Z,15.56
2019-03-25T08:07:04.301Z,16.52
2019-03-25T08:09:36.536Z,17.29
2019-03-25T08:12:09.011Z,17.86
2019-03-25T08:14:49.022Z,18.08
2019-03-25T08:17:21.398Z,18.63
2019-03-25T08:19:53.790Z,19.23
2019-03-25T08:22:26.046Z,19.68
2019-03-25T08:24:58.304Z,20.10
2019-03-25T08:27:30.555Z,20.73
2019-03-25T08:30:05.259Z,21.08
2019-03-25T08:32:37.573Z,21.28
2019-03-25T08:35:10.940Z,21.51
2019-03-25T08:37:43.229Z,21.61
2019-03-25T08:40:15.542Z,22.24
2019-03-25T08:42:47.807Z,22.26
2019-03-25T08:45:20.070Z,22.51
2019-03-25T08:47:52.417Z,22.68
2019-03-25T08:50:24.694Z,23.13
2019-03-25T08:52:56.934Z,22.20
2019-03-25T08:55:29.225Z,23.14
2019-03-25T08:58:11.558Z,23.93
2019-03-25T09:00:37.540Z,24.12
2019-03-25T09:03:10.989Z,24.69
2019-03-25T09:05:43.242Z,25.02
2019-03-25T09:08:15.602Z,24.39
2019-03-25T09:10:47.869Z,25.50
2019-03-25T09:13:20.141Z,24.86
2019-03-25T09:15:52.420Z,25.17
2019-03-25T09:18:24.667Z,24.14
2019-03-25T09:20:56.922Z,25.43
2019-03-25T09:23:29.174Z,26.05
2019-03-25T09:26:02.848Z,25.86
2019-03-25T09:28:36.299Z,26.47
2019-03-25T09:31:18.903Z,26.35
2019-03-25T09:33:51.204Z,25.22
2019-03-25T09:36:23.567Z,25.46
2019-03-25T09:38:55.815Z,25.26
2019-03-25T09:41:28.074Z,25.81
2019-03-25T09:44:00.335Z,25.67
2019-03-25T09:46:33.014Z,26.11
2019-03-25T09:49:05.984Z,26.59
2019-03-25T09:51:38.243Z,26.62
2019-03-25T09:54:10.552Z,26.73
2019-03-25T09:56:42.810Z,27.30
2019-03-25T09:59:16.562Z,27.74
2019-03-25T10:01:48.817Z,27.73
2019-03-25T10:04:21.130Z,26.95
2019-03-25T10:06:53.428Z,26.63
2019-03-25T10:09:25.793Z,25.87
2019-03-25T10:11:58.075Z,27.02
2019-03-25T10:14:30.351Z,27.25
2019-03-25T10:17:02.885Z,26.48
2019-03-25T10:19:35.127Z,26.85
2019-03-25T10:22:09.064Z,26.16
2019-03-25T10:24:41.360Z,27.08
2019-03-25T10:27:13.608Z,26.98
2019-03-25T10:29:46.406Z,26.56
2019-03-25T10:32:18.690Z,26.51
2019-03-25T10:34:50.956Z,26.58
2019-03-25T10:37:23.240Z,26.58
2019-03-25T10:39:55.509Z,27.13
2019-03-25T10:42:27.820Z,26.02
2019-03-25T10:45:02.053Z,27.59
2019-03-25T10:47:35.706Z,28.52
2019-03-25T10:50:08.047Z,28.63
2019-03-25T10:52:40.388Z,28.60
2019-03-25T10:55:12.654Z,27.72
2019-03-25T10:57:44.946Z,28.11
2019-03-25T11:00:17.280Z,26.63
2019-03-25T11:02:49.719Z,27.71
2019-03-25T11:05:22.349Z,28.39
2019-03-25T11:07:56.180Z,27.75
2019-03-25T11:10:28.483Z,27.95
2019-03-25T11:13:00.798Z,27.65
2019-03-25T11:15:33.122Z,28.28
2019-03-25T11:18:05.939Z,27.86
2019-03-25T11:20:38.265Z,27.88
2019-03-25T11:23:10.518Z,28.30
2019-03-25T11:25:43.082Z,28.30
2019-03-25T11:28:15.397Z,27.88
2019-03-25T11:30:52.294Z,27.03
2019-03-25T11:33:24.857Z,27.68
2019-03-25T11:35:57.179Z,27.42
2019-03-25T11:38:29.475Z,27.54
2019-03-25T11:41:03.457Z,27.17
2019-03-25T11:43:35.876Z,26.84
2019-03-25T11:46:08.159Z,27.52
2019-03-25T11:48:40.456Z,26.97
2019-03-25T11:51:12.765Z,27.16
2019-03-25T11:53:45.135Z,27.17
2019-03-25T11:56:17.406Z,27.53
2019-03-25T11:58:49.746Z,27.66
2019-03-25T12:01:22.089Z,27.43
2019-03-25T12:03:54.382Z,27.60
2019-03-25T12:06:26.660Z,26.55
2019-03-25T12:08:59.020Z,27.81
2019-03-25T12:11:31.417Z,27.75
2019-03-25T12:14:03.726Z,27.42
2019-03-25T12:16:35.996Z,27.53
2019-03-25T12:19:10.118Z,26.97
2019-03-25T12:21:42.439Z,27.02
2019-03-25T12:24:14.684Z,26.86
2019-03-25T12:26:47.016Z,26.57
2019-03-25T12:29:29.610Z,26.78
2019-03-25T12:31:54.245Z,25.79
2019-03-25T12:34:28.183Z,25.68
2019-03-25T12:37:00.648Z,25.45
2019-03-25T12:39:32.885Z,25.20
2019-03-25T12:42:05.786Z,25.14
2019-03-25T12:44:38.044Z,25.30
2019-03-25T12:47:10.390Z,25.15
2019-03-25T12:49:43.298Z,25.19
2019-03-25T12:52:15.604Z,25.32
2019-03-25T12:54:47.900Z,25.11
2019-03-25T12:57:20.164Z,25.19
2019-03-25T12:59:52.817Z,25.30
2019-03-25T13:02:25.060Z,24.94
2019-03-25T13:04:57.379Z,25.45
2019-03-25T13:07:29.778Z,25.17
2019-03-25T13:10:02.087Z,25.45
2019-03-25T13:12:34.462Z,25.33
2019-03-25T13:15:09.601Z,25.06
2019-03-25T13:17:41.888Z,25.20
2019-03-25T13:20:14.152Z,25.53
2019-03-25T13:22:46.446Z,25.38
2019-03-25T13:25:18.692Z,25.49
2019-03-25T13:27:51.010Z,25.91
2019-03-25T13:30:23.255Z,25.60
2019-03-25T13:32:55.664Z,26.10
2019-03-25T13:35:27.965Z,25.73
2019-03-25T13:38:00.268Z,25.76
2019-03-25T13:40:34.058Z,25.63
2019-03-25T13:43:06.342Z,25.95
2019-03-25T13:45:38.718Z,24.96
2019-03-25T13:48:11.540Z,25.52
2019-03-25T13:50:44.146Z,25.50
2019-03-25T13:53:16.493Z,25.41
2019-03-25T13:55:48.751Z,25.45
2019-03-25T13:58:21.034Z,25.60
2019-03-25T14:00:53.709Z,25.45
2019-03-25T14:03:26.084Z,25.42
2019-03-25T14:05:58.781Z,25.79
2019-03-25T14:08:32.032Z,25.60
2019-03-25T14:11:04.559Z,25.48
2019-03-25T14:13:37.048Z,25.39
2019-03-25T14:16:09.369Z,25.71
2019-03-25T14:18:41.621Z,25.75
2019-03-25T14:21:14.908Z,25.51
2019-03-25T14:23:47.146Z,25.25
2019-03-25T14:26:19.443Z,25.43
2019-03-25T14:28:51.684Z,25.60
2019-03-25T14:31:23.960Z,25.62
2019-03-25T14:33:56.247Z,25.64
2019-03-25T14:36:28.544Z,25.58
2019-03-25T14:39:00.809Z,25.71
2019-03-25T14:41:35.204Z,25.74
2019-03-25T14:44:07.436Z,25.47
2019-03-25T14:46:39.751Z,25.64
2019-03-25T14:49:13.409Z,25.97
2019-03-25T14:51:45.644Z,25.93
2019-03-25T14:54:19.738Z,25.59
2019-03-25T14:56:52.005Z,25.73
2019-03-25T14:59:24.277Z,25.49
2019-03-25T15:01:56.718Z,25.08
2019-03-25T15:04:28.963Z,25.35
2019-03-25T15:07:02.215Z,25.54
2019-03-25T15:09:34.479Z,25.34
2019-03-25T15:12:06.813Z,25.57
2019-03-25T15:14:40.619Z,25.52
2019-03-25T15:17:14.493Z,25.37
2019-03-25T15:19:48.881Z,25.16
2019-03-25T15:22:23.100Z,25.40
2019-03-25T15:24:55.879Z,25.18
2019-03-25T15:27:28.163Z,25.45
2019-03-25T15:30:00.393Z,25.58
2019-03-25T15:32:32.867Z,25.39
2019-03-25T15:35:05.712Z,25.04
2019-03-25T15:37:38.051Z,25.33
2019-03-25T15:40:11.096Z,25.41
2019-03-25T15:42:45.311Z,25.47
2019-03-25T15:45:22.385Z,25.23
2019-03-25T15:47:58.885Z,25.16
2019-03-25T15:50:34.358Z,25.22
2019-03-25T15:53:10.779Z,25.20
2019-03-25T15:55:45.441Z,25.27
2019-03-25T15:58:26.195Z,25.32
2019-03-25T16:00:55.732Z,25.39
2019-03-25T16:03:27.965Z,25.34
2019-03-25T16:06:00.207Z,25.05
2019-03-25T16:08:32.972Z,24.94
2019-03-25T16:11:06.213Z,24.79
2019-03-25T16:13:38.522Z,24.72
2019-03-25T16:16:10.769Z,24.92
2019-03-25T16:18:43.368Z,24.99
2019-03-25T16:21:15.660Z,24.91
2019-03-25T16:23:47.904Z,24.92
2019-03-25T16:26:20.187Z,25.02
2019-03-25T16:28:52.481Z,24.95
2019-03-25T16:31:24.860Z,24.97
2019-03-25T16:33:57.174Z,25.02
2019-03-25T16:36:29.508Z,24.86
2019-03-25T16:39:01.754Z,24.80
2019-03-25T16:41:35.567Z,24.77
2019-03-25T16:44:07.816Z,24.76
2019-03-25T16:46:40.090Z,24.71
2019-03-25T16:49:12.711Z,24.77
2019-03-25T16:51:44.946Z,24.83
2019-03-25T16:54:17.213Z,24.87
2019-03-25T16:56:49.486Z,24.58
2019-03-25T16:59:22.144Z,24.64
2019-03-25T17:01:54.386Z,24.55
2019-03-25T17:04:26.630Z,24.43
2019-03-25T17:06:58.862Z,24.37
2019-03-25T17:09:31.099Z,24.44
2019-03-25T17:12:03.375Z,24.36
2019-03-25T17:14:35.624Z,24.28
2019-03-25T17:17:07.877Z,24.14
2019-03-25T17:19:40.122Z,23.98
2019-03-25T17:22:12.360Z,23.93
2019-03-25T17:24:44.596Z,23.85
2019-03-25T17:27:16.902Z,23.87
2019-03-25T17:29:49.150Z,23.86
2019-03-25T17:32:21.469Z,23.79
2019-03-25T17:34:53.881Z,23.70
2019-03-25T17:37:26.107Z,23.69
2019-03-25T17:39:58.357Z,23.64
2019-03-25T17:42:31.820Z,23.60
2019-03-25T17:45:04.204Z,23.56
2019-03-25T17:47:36.460Z,23.45
2019-03-25T17:50:10.109Z,23.41
2019-03-25T17:52:42.359Z,23.37
2019-03-25T17:55:14.602Z,23.31
2019-03-25T17:57:46.914Z,23.28
2019-03-25T18:00:35.850Z,23.16
2019-03-25T18:03:12.272Z,23.06
2019-03-25T18:05:44.532Z,22.96
2019-03-25T18:08:16.779Z,22.87
2019-03-25T18:10:49.024Z,22.82
2019-03-25T18:13:22.645Z,22.76
2019-03-25T18:15:55.353Z,22.64
2019-03-25T18:18:27.572Z,22.52
2019-03-25T18:20:59.826Z,22.49
2019-03-25T18:23:34.962Z,22.50
2019-03-25T18:26:07.203Z,22.35
2019-03-25T18:28:39.725Z,22.24
2019-03-25T18:31:12.026Z,22.11
2019-03-25T18:33:44.270Z,22.07
2019-03-25T18:36:16.616Z,21.93
2019-03-25T18:38:48.884Z,21.75
2019-03-25T18:41:23.812Z,21.69
2019-03-25T18:43:56.253Z,21.58
2019-03-25T18:46:28.480Z,21.50
2019-03-25T18:49:00.713Z,21.47
2019-03-25T18:51:33.031Z,21.44
2019-03-25T18:54:05.345Z,21.34
2019-03-25T18:59:10.443Z,21.11
2019-03-25T19:01:42.373Z,20.99
2019-03-25T19:04:14.641Z,20.97
2019-03-25T19:06:47.377Z,20.82
2019-03-25T19:09:19.632Z,20.83
2019-03-25T19:11:51.863Z,20.71
2019-03-25T19:14:24.104Z,20.75
2019-03-25T19:16:56.397Z,20.70
2019-03-25T19:19:29.671Z,20.62
2019-03-25T19:22:05.216Z,20.56
2019-03-25T19:24:37.215Z,20.43
2019-03-25T19:27:09.546Z,20.42
2019-03-25T19:29:41.826Z,20.32
2019-03-25T19:32:15.865Z,20.16
2019-03-25T19:34:48.100Z,20.08
2019-03-25T19:37:20.343Z,20.02
2019-03-25T19:39:53.743Z,20.02
2019-03-25T19:42:26.057Z,20.10
2019-03-25T19:44:58.407Z,20.09
2019-03-25T19:47:30.695Z,20.15
2019-03-25T19:50:03.293Z,20.10
2019-03-25T19:52:35.553Z,20.07
2019-03-25T19:55:07.816Z,20.04
2019-03-25T19:57:40.155Z,20.02
2019-03-25T20:00:12.398Z,19.94
2019-03-25T20:02:46.575Z,19.87
2019-03-25T20:05:19.266Z,19.83
2019-03-25T20:07:51.522Z,19.90
2019-03-25T20:10:30.958Z,19.88
2019-03-25T20:13:03.323Z,19.70
2019-03-25T20:15:45.516Z,19.61
2019-03-25T20:18:09.656Z,19.62
2019-03-25T20:20:41.929Z,19.53
2019-03-25T20:23:14.239Z,19.61
2019-03-25T20:25:46.491Z,19.50
2019-03-25T20:28:18.739Z,19.45
2019-03-25T20:30:51.026Z,19.38
2019-03-25T20:33:23.386Z,19.32
2019-03-25T20:35:55.769Z,19.32
2019-03-25T20:38:28.067Z,19.32
2019-03-25T20:41:00.407Z,19.24
2019-03-25T20:43:33.142Z,19.34
2019-03-25T20:46:05.481Z,19.28
2019-03-25T20:48:38.048Z,19.30
2019-03-25T20:51:12.233Z,19.48
2019-03-25T20:53:45.042Z,19.49
2019-03-25T20:56:17.436Z,19.40
2019-03-25T20:58:49.690Z,19.28
2019-03-25T21:01:22.427Z,19.12
2019-03-25T21:03:54.705Z,19.03
2019-03-25T21:06:28.158Z,18.93
2019-03-25T21:09:00.405Z,18.91
2019-03-25T21:11:34.231Z,18.90
2019-03-25T21:14:06.729Z,18.80
2019-03-25T21:16:41.284Z,18.63
2019-03-25T21:19:13.644Z,18.48
2019-03-25T21:21:45.967Z,18.32
2019-03-25T21:24:18.702Z,18.17
2019-03-25T21:26:52.121Z,18.02
2019-03-25T21:29:24.446Z,17.87
2019-03-25T21:31:57.334Z,17.76
2019-03-25T21:34:29.665Z,17.61
2019-03-25T21:37:02.075Z,17.49
2019-03-25T21:39:34.453Z,17.40
2019-03-25T21:42:07.193Z,17.19
2019-03-25T21:44:39.521Z,17.07
2019-03-25T21:47:11.849Z,17.04
2019-03-25T21:49:44.225Z,16.93
2019-03-25T21:52:16.619Z,16.89
2019-03-25T21:54:49.223Z,16.84
2019-03-25T21:57:21.493Z,16.78
2019-03-25T21:59:53.755Z,16.69
2019-03-25T22:02:26.013Z,16.69
2019-03-25T22:04:58.439Z,16.69
2019-03-25T22:07:30.679Z,16.65
2019-03-25T22:10:02.932Z,16.50
2019-03-25T22:12:36.492Z,16.54
2019-03-25T22:15:10.299Z,16.51
2019-03-25T22:17:43.848Z,16.49
2019-03-25T22:20:16.201Z,16.56
2019-03-25T22:22:48.446Z,16.68
2019-03-25T22:25:21.754Z,16.67
2019-03-25T22:27:54.071Z,16.71
2019-03-25T22:30:26.302Z,16.75
2019-03-25T22:32:58.588Z,16.87
2019-03-25T22:35:30.860Z,16.79
2019-03-25T22:38:03.113Z,16.79
2019-03-25T22:40:35.375Z,16.61
2019-03-25T22:43:07.620Z,16.61
2019-03-25T22:45:39.869Z,16.55
2019-03-25T22:48:12.159Z,16.41
2019-03-25T22:50:44.418Z,16.34
2019-03-25T22:53:16.677Z,16.32
2019-03-25T22:55:48.982Z,16.33
2019-03-25T22:58:21.218Z,16.32
2019-03-25T23:00:53.524Z,16.34
2019-03-25T23:03:38.183Z,16.27
2019-03-25T23:06:00.034Z,16.32
2019-03-25T23:08:32.388Z,16.39
2019-03-25T23:11:04.686Z,16.39
2019-03-25T23:13:37.020Z,16.35
2019-03-25T23:16:09.316Z,16.30
2019-03-25T23:18:42.635Z,16.20
2019-03-25T23:21:14.920Z,16.23
2019-03-25T23:23:47.188Z,16.25
2019-03-25T23:26:19.484Z,16.19
2019-03-25T23:28:51.737Z,16.13
2019-03-25T23:31:24.475Z,16.11
2019-03-25T23:33:56.755Z,16.05
2019-03-25T23:36:30.134Z,16.01
2019-03-25T23:39:02.970Z,15.96
2019-03-25T23:41:37.177Z,15.97
2019-03-25T23:44:09.483Z,15.96
2019-03-25T23:47:31.689Z,15.83
2019-03-25T23:50:04.384Z,15.77
2019-03-25T23:52:36.665Z,15.63
2019-03-25T23:55:09.296Z,15.61
2019-03-25T23:57:41.544Z,15.61
